Terminal Aerodrome Forecast
Issued by NWS Sioux Falls, SD

Home | Current Version | Previous Version | Text Only | Print | Product List | Glossary Off
Versions: 1 2 3 4 5 6 7 8 9 10 11 12

000
FTUS43 KFSD 211730
TAFHON
TAF
KHON 211730Z 2118/2218 16010KT P6SM FEW250
     FM212300 27005KT P6SM FEW250
     FM220400 33007KT P6SM SCT250
     FM220800 03009KT P6SM BKN200
     FM221500 05007KT P6SM VCSH BKN050=

USA.gov is the U.S. government's official web portal to all federal, state and local government web resources and services.